Time;durP1;ratioP1;P1;durP2;ratioP2;P2;SDS_P1;SDS_P2;PMS_P1;PMS_P2;Temp;Humidity;BMP_temperature;BMP_pressure;BME280_temperature;BME280_humidity;BME280_pressure;Samples;Min_cycle;Max_cycle;Signal;HPM_P1;HPM_P2
2023/05/29 00:00:32;;;;;;;12.50;5.30;;;;;;;14.34;40.02;100813.02;107616;1260;72545;-81
2023/05/29 00:03:01;;;;;;;7.50;5.10;;;;;;;14.33;40.25;100808.91;107580;1260;73656;-79
2023/05/29 00:05:29;;;;;;;10.40;5.50;;;;;;;14.28;40.32;100807.95;107498;1262;61149;-80
2023/05/29 00:07:57;;;;;;;8.00;5.00;;;;;;;14.23;40.31;100806.15;107554;1261;61147;-79
2023/05/29 00:10:24;;;;;;;8.40;5.40;;;;;;;14.20;40.38;100811.22;107541;1261;74933;-80
2023/05/29 00:12:52;;;;;;;10.80;5.50;;;;;;;14.17;40.51;100813.80;107567;1260;72665;-82
2023/05/29 00:15:20;;;;;;;9.90;5.90;;;;;;;14.15;40.54;100812.26;107451;1260;71674;-79
2023/05/29 00:17:49;;;;;;;8.90;5.40;;;;;;;14.12;40.60;100810.60;107639;1263;61337;-79
2023/05/29 00:20:18;;;;;;;8.70;4.70;;;;;;;14.10;40.75;100807.66;107538;1260;61216;-79
2023/05/29 00:22:46;;;;;;;7.60;4.90;;;;;;;14.07;40.81;100813.24;107519;1261;74703;-79
2023/05/29 00:25:14;;;;;;;8.00;5.30;;;;;;;14.03;40.95;100815.35;107546;1260;73916;-79
2023/05/29 00:27:42;;;;;;;9.80;5.70;;;;;;;14.00;40.80;100817.63;107564;1260;71452;-80
2023/05/29 00:30:10;;;;;;;8.40;4.80;;;;;;;13.97;40.79;100811.71;107587;1263;61144;-79
2023/05/29 00:32:38;;;;;;;11.20;5.50;;;;;;;13.95;40.89;100812.91;107527;1260;61301;-79
2023/05/29 00:35:06;;;;;;;6.60;4.60;;;;;;;13.92;41.20;100807.27;107537;1260;74752;-79
2023/05/29 00:37:34;;;;;;;8.80;4.90;;;;;;;13.88;41.23;100799.45;107422;1261;71691;-79
2023/05/29 00:40:03;;;;;;;8.30;5.20;;;;;;;13.86;41.10;100799.88;107450;1261;73087;-79
2023/05/29 00:42:31;;;;;;;8.10;5.00;;;;;;;13.83;41.01;100796.56;107451;1260;61296;-79
2023/05/29 00:44:59;;;;;;;10.50;5.20;;;;;;;13.82;41.14;100797.11;107468;1260;61153;-79
2023/05/29 00:47:26;;;;;;;7.50;4.70;;;;;;;13.80;41.09;100796.73;107634;1260;74852;-79
2023/05/29 00:49:55;;;;;;;7.70;4.60;;;;;;;13.77;41.15;100795.77;107469;1260;71806;-78
2023/05/29 00:52:23;;;;;;;8.60;4.90;;;;;;;13.75;41.28;100795.72;107450;1260;72707;-79
2023/05/29 00:54:51;;;;;;;6.70;4.50;;;;;;;13.73;41.31;100801.26;107488;1262;59995;-79
2023/05/29 00:57:18;;;;;;;8.00;4.50;;;;;;;13.71;41.61;100803.95;107416;1260;61216;-78
2023/05/29 00:59:46;;;;;;;7.50;4.30;;;;;;;13.68;41.61;100805.73;107358;1262;74674;-78
2023/05/29 01:02:14;;;;;;;7.00;4.40;;;;;;;13.65;41.57;100811.90;107466;1260;72793;-78
2023/05/29 01:04:43;;;;;;;6.70;4.50;;;;;;;13.63;41.68;100809.98;107528;1262;72759;-79
2023/05/29 01:07:12;;;;;;;7.60;4.40;;;;;;;13.60;41.78;100811.31;107453;1261;60569;-79
2023/05/29 01:09:40;;;;;;;6.00;4.00;;;;;;;13.56;41.77;100814.06;107510;1260;61241;-79
2023/05/29 01:12:27;;;;;;;7.70;4.50;;;;;;;13.54;41.71;100811.42;107514;1262;74781;-79
2023/05/29 01:15:22;;;;;;;7.40;4.20;;;;;;;13.51;41.68;100813.27;107567;1261;72894;-79
2023/05/29 01:17:55;;;;;;;8.00;4.50;;;;;;;13.47;41.65;100814.17;107503;1261;72738;-79
2023/05/29 01:20:44;;;;;;;7.30;4.20;;;;;;;13.45;41.79;100818.20;107435;1262;61120;-78
2023/05/29 01:23:36;;;;;;;7.20;4.30;;;;;;;13.42;41.83;100817.23;107503;1260;61114;-79
2023/05/29 01:26:14;;;;;;;7.10;3.90;;;;;;;13.39;41.97;100820.35;107506;1260;74823;-79
2023/05/29 01:28:42;;;;;;;6.50;4.00;;;;;;;13.36;42.04;100821.05;107510;1261;71160;-80
2023/05/29 01:31:10;;;;;;;5.00;3.40;;;;;;;13.36;42.08;100821.38;107767;1260;72808;-80
2023/05/29 01:33:40;;;;;;;6.20;4.20;;;;;;;13.36;41.97;100822.45;107462;1262;61247;-80
2023/05/29 01:36:08;;;;;;;6.70;3.80;;;;;;;13.36;41.97;100826.15;107523;1259;61184;-79
2023/05/29 01:38:36;;;;;;;7.90;4.40;;;;;;;13.37;41.85;100827.00;107589;1260;73392;-80
2023/05/29 01:41:03;;;;;;;6.80;4.40;;;;;;;13.38;41.78;100825.77;107564;1260;72764;-79
2023/05/29 01:43:32;;;;;;;9.00;4.10;;;;;;;13.40;41.84;100826.15;107514;1267;71452;-79
2023/05/29 01:46:00;;;;;;;7.60;4.10;;;;;;;13.40;41.77;100826.27;107608;1261;61243;-79
2023/05/29 01:48:27;;;;;;;8.30;4.00;;;;;;;13.40;41.73;100825.23;107477;1262;61166;-79
2023/05/29 01:50:56;;;;;;;7.30;4.20;;;;;;;13.39;41.93;100828.83;107476;1261;74851;-79
2023/05/29 01:53:24;;;;;;;6.60;4.30;;;;;;;13.38;41.83;100829.30;107487;1267;71426;-79
2023/05/29 01:55:52;;;;;;;7.00;4.10;;;;;;;13.39;41.91;100830.81;107507;1262;71478;-79
2023/05/29 01:58:20;;;;;;;6.70;4.00;;;;;;;13.39;41.84;100830.86;107472;1262;61178;-78
2023/05/29 02:00:48;;;;;;;7.50;4.00;;;;;;;13.37;41.99;100832.95;107514;1262;61028;-78
2023/05/29 02:03:16;;;;;;;7.10;4.20;;;;;;;13.35;42.46;100836.61;107531;1261;74444;-79
2023/05/29 02:05:43;;;;;;;6.20;4.00;;;;;;;13.31;42.80;100834.73;107653;1262;75384;-79
2023/05/29 02:08:11;;;;;;;7.10;3.90;;;;;;;13.29;42.80;100837.26;107613;1260;71480;-79
2023/05/29 02:10:39;;;;;;;8.80;4.20;;;;;;;13.27;42.87;100835.41;107555;1260;61103;-80
2023/05/29 02:13:08;;;;;;;6.00;3.60;;;;;;;13.25;42.95;100837.35;107539;1261;61169;-79
2023/05/29 02:15:35;;;;;;;5.80;3.60;;;;;;;13.24;42.89;100837.77;107544;1260;75278;-79
2023/05/29 02:18:03;;;;;;;6.30;3.80;;;;;;;13.24;43.01;100842.11;107486;1262;70768;-79
2023/05/29 02:20:31;;;;;;;8.20;3.80;;;;;;;13.23;42.97;100844.52;107554;1262;73965;-79
2023/05/29 02:22:59;;;;;;;7.50;4.00;;;;;;;13.23;42.83;100848.65;107403;1262;61131;-80
2023/05/29 02:25:27;;;;;;;5.80;3.10;;;;;;;13.23;42.67;100847.73;107559;1262;61105;-80
2023/05/29 02:27:55;;;;;;;6.40;3.40;;;;;;;13.23;42.65;100848.06;107496;1260;74839;-80
2023/05/29 02:30:22;;;;;;;5.30;3.60;;;;;;;13.24;42.55;100843.62;107461;1261;73054;-79
2023/05/29 02:32:50;;;;;;;7.20;3.30;;;;;;;13.26;42.54;100845.02;107507;1265;72711;-79
2023/05/29 02:35:20;;;;;;;5.90;3.50;;;;;;;13.30;42.45;100841.06;107519;1261;61244;-80
2023/05/29 02:37:52;;;;;;;4.40;3.00;;;;;;;13.32;42.45;100839.66;107414;1262;61567;-79
2023/05/29 02:40:19;;;;;;;7.60;3.40;;;;;;;13.36;42.39;100840.31;107533;1262;74725;-79
2023/05/29 02:42:47;;;;;;;6.10;3.50;;;;;;;13.40;42.42;100837.95;107516;1261;72973;-79
2023/05/29 02:45:15;;;;;;;6.10;3.30;;;;;;;13.46;42.37;100836.34;107123;1260;528677;-78
2023/05/29 02:47:42;;;;;;;9.00;3.80;;;;;;;13.50;42.62;100835.73;107514;1266;61710;-80
2023/05/29 02:50:10;;;;;;;5.90;3.60;;;;;;;13.54;42.57;100831.52;107562;1261;61164;-79
2023/05/29 02:52:38;;;;;;;7.90;4.00;;;;;;;13.58;42.43;100830.22;107553;1261;77080;-80
2023/05/29 02:55:06;;;;;;;6.30;3.30;;;;;;;13.64;42.23;100830.96;107507;1260;71571;-79
2023/05/29 02:57:34;;;;;;;5.60;3.40;;;;;;;13.71;42.20;100826.55;107572;1262;71201;-79
2023/05/29 03:00:05;;;;;;;6.30;3.50;;;;;;;13.78;42.02;100823.14;107518;1262;61150;-79
2023/05/29 03:02:34;;;;;;;5.70;3.20;;;;;;;13.86;42.24;100819.86;107553;1262;61135;-79
2023/05/29 03:05:05;;;;;;;6.80;3.80;;;;;;;13.95;42.22;100826.71;107566;1262;75869;-78
2023/05/29 03:07:32;;;;;;;6.60;3.30;;;;;;;14.04;42.41;100829.58;107594;1264;70518;-79
2023/05/29 03:10:00;;;;;;;8.00;3.90;;;;;;;14.11;42.92;100831.70;107471;1262;72658;-79
2023/05/29 03:12:29;;;;;;;5.60;3.30;;;;;;;14.18;43.19;100826.44;107598;1265;61135;-79
2023/05/29 03:14:57;;;;;;;6.00;3.40;;;;;;;14.25;43.47;100828.55;107562;1262;61029;-79
2023/05/29 03:17:25;;;;;;;5.90;3.70;;;;;;;14.32;44.37;100830.29;107410;1260;77259;-79
2023/05/29 03:19:53;;;;;;;7.00;3.60;;;;;;;14.39;44.76;100831.06;107399;1260;72217;-79
2023/05/29 03:22:21;;;;;;;6.70;4.00;;;;;;;14.45;44.98;100835.19;107547;1262;71558;-78
2023/05/29 03:24:49;;;;;;;8.30;3.70;;;;;;;14.49;45.32;100837.00;107539;1261;61125;-79
2023/05/29 03:27:16;;;;;;;6.90;3.90;;;;;;;14.54;45.44;100830.81;107558;1260;61154;-80
2023/05/29 03:29:47;;;;;;;7.70;4.00;;;;;;;14.61;45.10;100834.05;107559;1266;74698;-80
2023/05/29 03:32:15;;;;;;;8.40;4.20;;;;;;;14.68;45.11;100833.00;107462;1267;73288;-79
2023/05/29 03:34:43;;;;;;;8.00;3.60;;;;;;;14.73;45.47;100836.46;107537;1262;72586;-78
2023/05/29 03:37:11;;;;;;;7.30;3.60;;;;;;;14.79;45.19;100836.39;107476;1262;61012;-79
2023/05/29 03:39:38;;;;;;;9.00;3.50;;;;;;;14.87;44.98;100837.15;107378;1262;61264;-78
2023/05/29 03:42:06;;;;;;;7.20;3.90;;;;;;;14.91;44.82;100841.58;107484;1261;73452;-80
2023/05/29 03:44:34;;;;;;;6.60;3.30;;;;;;;14.94;44.67;100838.98;107495;1262;73453;-79
2023/05/29 03:47:03;;;;;;;5.80;3.80;;;;;;;14.98;44.20;100840.02;107465;1261;71475;-79
2023/05/29 03:49:32;;;;;;;8.10;3.50;;;;;;;15.03;44.14;100843.39;107442;1266;61383;-79
2023/05/29 03:51:59;;;;;;;5.60;3.40;;;;;;;15.06;44.03;100845.63;107525;1261;60673;-79
2023/05/29 03:54:27;;;;;;;5.40;3.60;;;;;;;15.12;43.97;100849.88;107397;1260;74675;-79
2023/05/29 03:56:55;;;;;;;6.30;3.90;;;;;;;15.19;43.99;100851.02;107401;1262;70632;-80
2023/05/29 03:59:24;;;;;;;5.60;3.00;;;;;;;15.28;43.89;100848.75;107458;1262;71522;-80
2023/05/29 04:01:52;;;;;;;7.80;3.60;;;;;;;15.36;43.54;100845.13;107507;1262;61286;-78
2023/05/29 04:04:20;;;;;;;6.90;3.70;;;;;;;15.43;43.54;100842.92;107455;1260;61256;-79
2023/05/29 04:06:47;;;;;;;5.20;3.40;;;;;;;15.53;43.46;100850.31;107457;1260;73190;-80
2023/05/29 04:09:15;;;;;;;6.60;3.70;;;;;;;15.63;43.38;100853.35;107547;1260;72977;-80
2023/05/29 04:11:44;;;;;;;6.70;3.80;;;;;;;15.76;43.22;100856.88;107543;1265;73042;-80
2023/05/29 04:14:12;;;;;;;7.30;3.30;;;;;;;15.86;43.15;100861.68;107472;1260;61170;-79
2023/05/29 04:16:40;;;;;;;6.10;3.40;;;;;;;15.96;42.85;100858.94;107560;1260;60118;-79
2023/05/29 04:19:07;;;;;;;5.10;3.10;;;;;;;16.06;42.74;100861.59;107533;1262;74709;-79
2023/05/29 04:21:35;;;;;;;9.80;4.00;;;;;;;16.15;42.43;100863.05;107494;1260;71745;-78
2023/05/29 04:24:03;;;;;;;5.60;3.40;;;;;;;16.26;42.14;100863.41;107468;1260;72988;-79
2023/05/29 04:26:32;;;;;;;5.10;3.50;;;;;;;16.35;41.71;100863.08;107391;1262;61141;-80
2023/05/29 04:29:01;;;;;;;4.90;3.20;;;;;;;16.45;41.64;100862.20;107508;1261;61175;-78
2023/05/29 04:31:31;;;;;;;7.00;3.70;;;;;;;16.56;41.28;100860.30;107500;1262;76812;-79
2023/05/29 04:34:00;;;;;;;5.40;3.00;;;;;;;16.68;40.89;100860.84;107317;1262;70882;-79
2023/05/29 04:36:28;;;;;;;7.70;3.20;;;;;;;16.79;40.51;100858.12;107335;1262;72674;-79
2023/05/29 04:39:06;;;;;;;8.10;3.10;;;;;;;16.93;40.46;100856.96;107465;1260;60290;-79
2023/05/29 04:41:35;;;;;;;5.00;2.80;;;;;;;17.08;40.22;100857.17;107398;1260;61264;-79
2023/05/29 04:44:04;;;;;;;5.50;2.90;;;;;;;17.21;39.68;100856.55;107513;1260;72827;-78
2023/05/29 04:46:44;;;;;;;5.30;2.50;;;;;;;17.35;39.64;100858.27;107472;1261;74944;-79
2023/05/29 04:49:12;;;;;;;4.60;2.50;;;;;;;17.47;38.04;100855.85;107382;1266;72739;-79
2023/05/29 04:51:40;;;;;;;5.70;2.40;;;;;;;17.53;37.47;100856.87;107429;1261;61201;-78
2023/05/29 04:54:09;;;;;;;4.30;2.30;;;;;;;17.61;37.03;100860.31;107445;1261;61258;-79
2023/05/29 04:56:40;;;;;;;5.60;2.20;;;;;;;17.68;36.77;100862.67;107444;1262;75137;-80
2023/05/29 04:59:08;;;;;;;5.20;2.30;;;;;;;17.78;36.66;100861.02;107386;1260;71688;-78
2023/05/29 05:01:36;;;;;;;6.40;2.60;;;;;;;17.89;37.08;100859.96;107371;1262;72968;-79
2023/05/29 05:04:04;;;;;;;3.80;2.40;;;;;;;18.01;36.99;100854.65;107388;1263;61360;-78
2023/05/29 05:06:32;;;;;;;4.40;2.50;;;;;;;18.12;36.24;100852.89;107448;1262;59339;-79
2023/05/29 05:09:00;;;;;;;4.30;2.30;;;;;;;18.18;35.80;100848.98;107525;1260;74770;-79
2023/05/29 05:11:28;;;;;;;4.40;2.10;;;;;;;18.27;36.48;100854.97;107527;1262;71038;-78
2023/05/29 05:13:56;;;;;;;5.80;2.40;;;;;;;18.35;36.24;100846.56;107357;1260;71534;-78
2023/05/29 05:16:25;;;;;;;3.60;1.90;;;;;;;18.44;36.17;100848.07;107460;1262;61302;-79
2023/05/29 05:18:53;;;;;;;3.70;2.20;;;;;;;18.51;35.45;100842.73;107417;1262;61252;-78
2023/05/29 05:21:21;;;;;;;4.70;2.50;;;;;;;18.54;34.97;100845.36;107497;1261;74868;-79
2023/05/29 05:23:49;;;;;;;4.40;2.40;;;;;;;18.58;35.54;100845.18;107445;1263;71634;-79
2023/05/29 05:26:28;;;;;;;3.10;1.90;;;;;;;18.69;35.91;100843.92;107517;1261;72543;-78
2023/05/29 05:28:56;;;;;;;4.00;2.30;;;;;;;18.80;35.60;100845.96;107466;1263;61306;-79
2023/05/29 05:31:26;;;;;;;5.50;2.40;;;;;;;18.88;35.27;100843.29;107557;1261;61255;-80
2023/05/29 05:33:54;;;;;;;4.40;2.20;;;;;;;18.97;35.17;100851.16;107544;1262;73455;-79
2023/05/29 05:36:21;;;;;;;5.30;2.50;;;;;;;19.07;34.97;100858.25;107519;1261;72952;-78
2023/05/29 05:38:56;;;;;;;4.40;2.20;;;;;;;19.16;35.15;100857.75;107499;1262;72782;-78
2023/05/29 05:41:24;;;;;;;3.40;2.10;;;;;;;19.25;35.38;100862.48;107461;1261;60444;-79
2023/05/29 05:43:53;;;;;;;4.60;2.00;;;;;;;19.37;35.38;100862.52;107540;1263;61151;-79
2023/05/29 05:46:50;;;;;;;4.00;1.90;;;;;;;19.50;35.15;100859.70;107503;1260;76875;-78
2023/05/29 05:49:17;;;;;;;3.00;1.60;;;;;;;19.62;34.93;100860.92;107531;1262;73035;-78
2023/05/29 05:51:45;;;;;;;4.90;2.20;;;;;;;19.71;33.68;100863.30;107451;1261;72640;-78
2023/05/29 05:54:15;;;;;;;4.80;2.20;;;;;;;19.75;33.53;100863.86;107436;1262;61037;-78
2023/05/29 05:56:43;;;;;;;4.90;1.90;;;;;;;19.79;33.92;100864.07;107494;1260;60537;-79
2023/05/29 05:59:13;;;;;;;3.80;1.90;;;;;;;19.87;34.29;100868.41;107405;1262;74745;-78
2023/05/29 06:01:41;;;;;;;4.90;2.00;;;;;;;19.97;33.97;100867.09;107528;1262;73031;-78
2023/05/29 06:04:09;;;;;;;13.50;3.20;;;;;;;20.05;33.73;100865.98;107523;1260;74792;-78
2023/05/29 06:06:37;;;;;;;4.70;2.20;;;;;;;20.16;33.99;100866.65;107495;1262;61346;-78
2023/05/29 06:09:05;;;;;;;4.10;2.30;;;;;;;20.38;33.88;100868.48;107418;1260;61362;-79
2023/05/29 06:11:32;;;;;;;5.10;2.40;;;;;;;20.48;32.99;100865.86;107509;1261;74702;-79
2023/05/29 06:14:00;;;;;;;4.40;2.20;;;;;;;20.50;32.77;100867.44;107421;1261;72790;-79
2023/05/29 06:16:28;;;;;;;4.60;2.30;;;;;;;20.49;33.24;100865.03;107301;1260;71209;-79
2023/05/29 06:18:57;;;;;;;5.50;2.30;;;;;;;20.57;33.17;100864.66;108105;1261;59770;-79
2023/05/29 06:21:25;;;;;;;5.20;2.40;;;;;;;20.65;32.47;100866.59;107507;1260;59593;-79
2023/05/29 06:23:54;;;;;;;4.20;2.10;;;;;;;20.71;32.98;100868.16;107581;1261;73444;-79
2023/05/29 06:26:23;;;;;;;6.50;2.30;;;;;;;20.80;32.81;100863.91;107519;1261;72999;-81
2023/05/29 06:28:51;;;;;;;4.60;2.20;;;;;;;20.92;33.32;100866.15;107574;1266;72720;-79
2023/05/29 06:31:19;;;;;;;4.90;2.00;;;;;;;21.03;33.43;100855.42;107476;1260;61120;-77
2023/05/29 06:33:47;;;;;;;4.00;2.00;;;;;;;21.18;32.98;100853.37;107551;1263;61105;-79
2023/05/29 06:36:14;;;;;;;6.30;2.30;;;;;;;21.28;32.18;100848.54;107557;1260;74733;-78
2023/05/29 06:38:47;;;;;;;3.80;1.80;;;;;;;21.31;31.75;100850.83;107526;1260;71894;-78
2023/05/29 06:41:16;;;;;;;4.50;2.00;;;;;;;21.34;31.56;100846.55;107561;1261;70561;-79
2023/05/29 06:43:43;;;;;;;3.80;2.10;;;;;;;21.29;32.05;100845.48;107497;1260;61254;-81
2023/05/29 06:46:11;;;;;;;4.90;2.10;;;;;;;21.32;32.11;100843.11;107465;1260;61184;-79
2023/05/29 06:48:39;;;;;;;5.10;2.20;;;;;;;21.40;32.18;100842.26;107495;1260;76749;-79
2023/05/29 06:51:08;;;;;;;4.30;1.70;;;;;;;21.53;31.78;100844.05;107507;1260;71526;-78
2023/05/29 06:53:48;;;;;;;3.70;2.00;;;;;;;21.60;31.03;100848.00;107566;1261;71100;-78
2023/05/29 06:56:16;;;;;;;5.60;2.20;;;;;;;21.60;30.72;100846.42;107577;1264;62362;-78
2023/05/29 06:58:45;;;;;;;3.10;1.90;;;;;;;21.61;30.90;100840.41;107591;1261;60699;-80
2023/05/29 07:01:16;;;;;;;5.70;2.20;;;;;;;21.65;30.93;100834.58;107599;1261;72436;-79
2023/05/29 07:03:54;;;;;;;3.70;2.00;;;;;;;21.70;31.07;100829.92;107511;1261;72972;-80
2023/05/29 07:06:22;;;;;;;5.60;1.90;;;;;;;21.79;30.93;100827.71;107519;1261;71403;-79
2023/05/29 07:08:49;;;;;;;3.90;2.00;;;;;;;21.93;30.86;100824.46;107538;1261;60189;-80
2023/05/29 07:11:17;;;;;;;4.70;1.70;;;;;;;22.07;30.89;100821.83;107463;1265;60065;-79
2023/05/29 07:13:45;;;;;;;3.30;1.60;;;;;;;22.21;30.10;100818.66;107543;1262;74702;-79
2023/05/29 07:16:14;;;;;;;3.10;1.80;;;;;;;22.28;29.36;100822.33;107469;1261;72938;-80
2023/05/29 07:18:55;;;;;;;3.50;1.40;;;;;;;22.31;29.02;100820.41;107449;1265;71580;-79
2023/05/29 07:21:23;;;;;;;3.20;1.60;;;;;;;22.38;29.41;100822.48;107561;1262;61304;-79
2023/05/29 07:23:50;;;;;;;5.90;1.90;;;;;;;22.53;29.46;100823.38;107523;1260;61136;-78
2023/05/29 07:26:19;;;;;;;5.50;1.70;;;;;;;22.67;28.97;100827.16;107575;1262;74675;-81
2023/05/29 07:28:46;;;;;;;4.00;1.60;;;;;;;22.75;28.79;100828.77;107500;1260;71712;-80
2023/05/29 07:31:14;;;;;;;6.70;1.50;;;;;;;22.92;28.60;100827.31;107619;1262;72751;-79
2023/05/29 07:33:42;;;;;;;2.70;1.50;;;;;;;23.03;27.47;100827.95;107507;1265;61270;-79
2023/05/29 07:36:10;;;;;;;3.40;1.60;;;;;;;23.08;27.52;100828.13;107750;1262;61333;-79
2023/05/29 07:38:38;;;;;;;4.60;1.50;;;;;;;23.19;28.40;100825.78;107750;1262;74795;-79
2023/05/29 07:41:06;;;;;;;3.80;1.30;;;;;;;23.35;27.61;100827.05;107564;1260;73759;-80
2023/05/29 07:43:36;;;;;;;3.60;1.50;;;;;;;23.42;26.95;100822.77;107520;1261;73433;-79
2023/05/29 07:46:06;;;;;;;4.40;1.50;;;;;;;23.46;26.87;100827.88;107502;1265;61275;-79
2023/05/29 07:48:35;;;;;;;3.70;1.50;;;;;;;23.53;25.90;100832.67;107597;1261;61109;-80
2023/05/29 07:51:03;;;;;;;2.60;1.30;;;;;;;23.52;25.66;100825.75;107513;1262;74819;-80
2023/05/29 07:53:33;;;;;;;6.00;1.50;;;;;;;23.54;25.62;100827.70;107590;1262;73265;-83
2023/05/29 07:56:01;;;;;;;5.10;1.60;;;;;;;23.50;24.96;100823.89;107501;1262;73113;-78
2023/05/29 07:58:29;;;;;;;3.40;1.30;;;;;;;23.41;25.35;100826.88;107474;1267;61122;-79
2023/05/29 08:00:57;;;;;;;3.90;1.30;;;;;;;23.36;25.63;100828.44;107432;1260;61258;-79
2023/05/29 08:03:25;;;;;;;4.00;1.60;;;;;;;23.35;24.97;100824.43;107403;1260;73024;-79
2023/05/29 08:06:14;;;;;;;3.20;1.50;;;;;;;23.35;25.75;100820.29;107800;1261;73056;-80
2023/05/29 08:08:42;;;;;;;3.70;1.20;;;;;;;23.45;26.18;100817.48;107670;1265;72776;-78
2023/05/29 08:11:10;;;;;;;3.00;1.80;;;;;;;23.59;25.64;100811.84;107435;1261;61147;-80
2023/05/29 08:13:38;;;;;;;6.70;1.40;;;;;;;23.71;26.09;100811.77;107490;1261;60010;-79
2023/05/29 08:16:06;;;;;;;3.60;1.50;;;;;;;23.79;26.65;100806.57;107437;1261;73459;-79
2023/05/29 08:18:33;;;;;;;2.90;1.40;;;;;;;23.88;26.46;100806.27;107489;1261;71900;-79
2023/05/29 08:21:01;;;;;;;5.60;1.60;;;;;;;23.95;26.32;100804.91;107539;1261;72825;-79
2023/05/29 08:23:31;;;;;;;2.60;1.40;;;;;;;24.07;26.36;100807.78;107536;1261;59880;-79
2023/05/29 08:26:05;;;;;;;3.60;1.30;;;;;;;24.20;25.64;100807.17;107584;1261;61147;-78
2023/05/29 08:28:32;;;;;;;2.90;1.40;;;;;;;24.25;25.54;100811.47;107553;1260;74795;-79
2023/05/29 08:31:00;;;;;;;6.20;1.60;;;;;;;24.29;25.42;100812.19;107537;1261;72770;-80
2023/05/29 08:33:28;;;;;;;3.60;1.50;;;;;;;24.34;25.59;100810.57;107549;1261;72492;-80
2023/05/29 08:35:57;;;;;;;2.80;1.30;;;;;;;24.44;25.32;100813.59;107568;1260;62371;-79
2023/05/29 08:38:25;;;;;;;3.50;1.50;;;;;;;24.56;25.13;100807.05;107566;1265;61252;-79
2023/05/29 08:40:54;;;;;;;3.50;1.50;;;;;;;24.65;24.58;100809.63;107604;1262;74925;-77
2023/05/29 08:43:22;;;;;;;3.60;1.40;;;;;;;24.62;24.67;100810.63;107490;1260;74339;-79
2023/05/29 08:45:53;;;;;;;4.00;1.40;;;;;;;24.63;24.32;100811.44;107494;1265;72898;-79
2023/05/29 08:48:23;;;;;;;2.90;1.30;;;;;;;24.64;23.70;100811.46;107609;1266;61318;-78
2023/05/29 08:50:52;;;;;;;2.60;1.30;;;;;;;24.62;23.49;100802.34;107507;1264;61266;-79
2023/05/29 08:53:24;;;;;;;5.30;1.90;;;;;;;24.64;23.61;100797.50;107533;1266;74675;-79
2023/05/29 08:55:52;;;;;;;6.20;1.50;;;;;;;24.76;24.40;100800.83;107673;1261;71701;-79
2023/05/29 08:58:23;;;;;;;3.20;1.40;;;;;;;24.91;23.38;100795.52;107462;1266;72750;-81
2023/05/29 09:00:51;;;;;;;3.30;1.40;;;;;;;24.94;23.20;100793.82;107498;1261;61031;-79
2023/05/29 09:03:20;;;;;;;4.30;1.30;;;;;;;25.00;23.29;100786.34;107983;1260;59458;-79
2023/05/29 09:05:48;;;;;;;4.60;1.40;;;;;;;25.06;22.87;100783.08;107962;1260;73924;-79
2023/05/29 09:08:16;;;;;;;4.30;1.50;;;;;;;25.10;23.07;100783.77;107576;1261;72785;-80
2023/05/29 09:10:45;;;;;;;3.20;1.50;;;;;;;25.10;23.21;100781.14;107523;1261;71487;-79
2023/05/29 09:13:13;;;;;;;5.40;1.70;;;;;;;25.06;22.21;100779.31;107519;1265;59446;-78
2023/05/29 09:15:45;;;;;;;36.40;4.90;;;;;;;25.04;22.25;100769.88;107597;1260;62043;-80
2023/05/29 09:18:13;;;;;;;7.90;2.20;;;;;;;25.04;22.83;100775.05;107626;1265;75078;-80
2023/05/29 09:20:43;;;;;;;4.10;1.20;;;;;;;25.12;23.16;100771.27;107605;1260;72902;-79
2023/05/29 09:23:10;;;;;;;113.80;9.10;;;;;;;25.25;23.23;100767.57;107598;1261;72828;-79
2023/05/29 09:25:45;;;;;;;7.70;1.70;;;;;;;25.39;23.24;100762.86;107609;1264;60984;-79
2023/05/29 09:28:12;;;;;;;4.30;1.70;;;;;;;25.55;22.96;100756.77;107580;1260;60809;-79
2023/05/29 09:30:44;;;;;;;2.80;1.40;;;;;;;25.65;23.06;100748.35;107545;1261;74844;-79
2023/05/29 09:33:12;;;;;;;;;;;;;;;25.80;23.28;100750.59;107623;1261;72746;-80
2023/05/29 09:35:44;;;;;;;4.00;1.40;;;;;;;25.92;22.84;100751.58;107442;1263;72550;-80
2023/05/29 09:38:16;;;;;;;2.50;1.30;;;;;;;25.79;22.26;100748.83;107569;1260;59551;-79
2023/05/29 09:41:05;;;;;;;2.80;1.20;;;;;;;25.51;22.40;100745.03;107599;1261;61357;-81
2023/05/29 09:43:34;;;;;;;3.90;1.30;;;;;;;25.47;23.10;100740.02;107639;1260;74771;-81
2023/05/29 09:46:02;;;;;;;3.60;1.40;;;;;;;25.63;23.51;100732.10;107545;1261;72874;-79
2023/05/29 09:48:30;;;;;;;4.30;1.40;;;;;;;25.81;23.56;100727.45;107508;1263;71462;-80
2023/05/29 09:51:01;;;;;;;4.00;1.40;;;;;;;25.89;23.12;100727.80;107588;1261;61387;-78
2023/05/29 09:53:29;;;;;;;2.90;1.40;;;;;;;25.89;22.76;100720.40;107623;1261;61160;-78
2023/05/29 09:55:57;;;;;;;4.80;1.20;;;;;;;25.93;22.93;100722.43;107585;1260;77032;-80
2023/05/29 09:58:25;;;;;;;3.80;1.50;;;;;;;25.93;22.22;100715.40;107624;1261;71650;-80
2023/05/29 10:00:53;;;;;;;4.00;1.70;;;;;;;25.84;22.42;100715.05;107543;1265;72799;-79
2023/05/29 10:03:23;;;;;;;4.10;1.30;;;;;;;25.77;22.70;100717.35;107568;1261;61171;-79
2023/05/29 10:05:54;;;;;;;3.00;1.40;;;;;;;25.75;22.33;100717.39;107505;1261;62289;-79
2023/05/29 10:08:22;;;;;;;2.50;1.50;;;;;;;25.78;22.23;100718.41;107564;1260;74835;-78
2023/05/29 10:10:59;;;;;;;2.80;1.30;;;;;;;25.84;22.99;100719.11;107540;1260;71603;-79
2023/05/29 10:13:28;;;;;;;4.00;1.60;;;;;;;25.94;22.42;100718.23;107538;1261;71569;-80
2023/05/29 10:15:55;;;;;;;4.50;1.40;;;;;;;26.00;22.23;100712.33;107523;1264;61147;-79
2023/05/29 10:18:38;;;;;;;3.30;1.30;;;;;;;25.99;21.96;100712.23;107509;1260;61178;-79
2023/05/29 10:21:07;;;;;;;463.30;58.20;;;;;;;25.92;22.10;100711.23;107605;1260;74782;-80
2023/05/29 10:23:35;;;;;;;14.10;4.30;;;;;;;25.93;22.31;100708.67;107631;1260;72728;-78
2023/05/29 10:26:30;;;;;;;4.40;1.80;;;;;;;26.02;22.15;100709.64;107565;1260;72916;-81
2023/05/29 10:29:22;;;;;;;3.20;1.50;;;;;;;26.09;22.42;100703.71;107522;1263;60538;-79
2023/05/29 10:31:53;;;;;;;;;;;;;;;26.27;22.96;100708.54;107625;1260;61247;-78
2023/05/29 10:34:28;;;;;;;3.50;1.40;;;;;;;26.39;22.30;100703.38;107612;1261;74031;-81
2023/05/29 10:37:20;;;;;;;7.00;1.70;;;;;;;26.29;21.46;100700.81;107653;1261;72898;-78
2023/05/29 10:39:48;;;;;;;3.40;1.60;;;;;;;26.09;21.04;100701.36;107674;1260;73016;-80
2023/05/29 10:42:43;;;;;;;3.60;1.70;;;;;;;26.01;22.23;100705.48;107590;1260;60138;-80
2023/05/29 10:45:31;;;;;;;2.20;1.20;;;;;;;26.08;22.07;100709.01;107555;1260;61187;-81
2023/05/29 10:48:11;;;;;;;4.00;1.50;;;;;;;26.21;21.43;100708.64;107612;1260;74660;-79
2023/05/29 10:50:40;;;;;;;3.60;1.50;;;;;;;26.29;21.56;100709.04;107522;1261;72941;-81
2023/05/29 10:53:12;;;;;;;4.20;1.40;;;;;;;26.33;20.93;100702.71;107552;1261;72940;-79
2023/05/29 10:55:40;;;;;;;2.80;1.20;;;;;;;26.35;21.26;100702.85;107562;1260;61175;-79
2023/05/29 10:58:12;;;;;;;7.50;1.80;;;;;;;26.44;20.59;100705.45;107573;1265;61116;-79
2023/05/29 11:00:41;;;;;;;3.20;1.50;;;;;;;26.42;20.59;100707.52;107569;1260;73225;-79
2023/05/29 11:03:10;;;;;;;3.20;1.40;;;;;;;26.41;20.62;100701.08;107585;1260;72802;-79
2023/05/29 11:05:58;;;;;;;3.30;1.30;;;;;;;26.43;21.17;100696.80;107597;1261;73229;-79
2023/05/29 11:08:54;;;;;;;4.00;1.50;;;;;;;26.56;21.11;100695.84;107556;1261;61279;-78
2023/05/29 11:11:31;;;;;;;3.90;1.50;;;;;;;26.66;20.96;100693.45;107556;1260;61343;-79
2023/05/29 11:14:06;;;;;;;2.00;1.30;;;;;;;26.64;20.97;100695.69;107595;1261;73924;-80
2023/05/29 11:16:33;;;;;;;3.00;1.40;;;;;;;26.56;20.49;100692.87;107597;1260;74409;-80
2023/05/29 11:19:06;;;;;;;5.10;1.50;;;;;;;26.51;20.65;100687.68;107497;1265;71421;-79
2023/05/29 11:21:40;;;;;;;3.40;1.50;;;;;;;26.51;20.23;100687.98;107563;1264;61375;-79
2023/05/29 11:24:08;;;;;;;2.20;1.10;;;;;;;26.41;19.92;100685.19;107508;1260;61035;-81
2023/05/29 11:26:37;;;;;;;11.70;1.90;;;;;;;26.34;19.87;100689.83;107462;1261;74761;-78
2023/05/29 11:29:06;;;;;;;2.70;1.60;;;;;;;26.36;20.03;100683.59;107619;1260;72894;-78